Map

Track Data

SID SEASON NUMBER BASIN SUBBASIN NAME ISO_TIME NATURE LAT LON WMO_WIND WMO_PRES WMO_AGENCY TRACK_TYPE DIST2LAND LANDFALL IFLAG USA_AGENCY USA_ATCF_ID USA_LAT USA_LON USA_RECORD USA_STATUS USA_WIND USA_PRES USA_SSHS USA_R34_NE USA_R34_SE USA_R34_SW USA_R34_NW USA_R50_NE USA_R50_SE USA_R50_SW USA_R50_NW USA_R64_NE USA_R64_SE USA_R64_SW USA_R64_NW USA_POCI USA_ROCI USA_RMW USA_EYE TOKYO_LAT TOKYO_LON TOKYO_GRADE TOKYO_WIND TOKYO_PRES TOKYO_R50_DIR TOKYO_R50_LONG TOKYO_R50_SHORT TOKYO_R30_DIR TOKYO_R30_LONG TOKYO_R30_SHORT TOKYO_LAND CMA_LAT CMA_LON CMA_CAT CMA_WIND CMA_PRES HKO_LAT HKO_LON HKO_CAT HKO_WIND HKO_PRES NEWDELHI_LAT NEWDELHI_LON NEWDELHI_GRADE NEWDELHI_WIND NEWDELHI_PRES NEWDELHI_CI NEWDELHI_DP NEWDELHI_POCI REUNION_LAT REUNION_LON REUNION_TYPE REUNION_WIND REUNION_PRES REUNION_TNUM REUNION_CI REUNION_RMW REUNION_R34_NE REUNION_R34_SE REUNION_R34_SW REUNION_R34_NW REUNION_R50_NE REUNION_R50_SE REUNION_R50_SW REUNION_R50_NW REUNION_R64_NE REUNION_R64_SE REUNION_R64_SW REUNION_R64_NW BOM_LAT BOM_LON BOM_TYPE BOM_WIND BOM_PRES BOM_TNUM BOM_CI BOM_RMW BOM_R34_NE BOM_R34_SE BOM_R34_SW BOM_R34_NW BOM_R50_NE BOM_R50_SE BOM_R50_SW BOM_R50_NW BOM_R64_NE BOM_R64_SE BOM_R64_SW BOM_R64_NW BOM_ROCI BOM_POCI BOM_EYE BOM_POS_METHOD BOM_PRES_METHOD NADI_LAT NADI_LON NADI_CAT NADI_WIND NADI_PRES WELLINGTON_LAT WELLINGTON_LON WELLINGTON_WIND WELLINGTON_PRES DS824_LAT DS824_LON DS824_STAGE DS824_WIND DS824_PRES TD9636_LAT TD9636_LON TD9636_STAGE TD9636_WIND TD9636_PRES TD9635_LAT TD9635_LON TD9635_WIND TD9635_PRES TD9635_ROCI NEUMANN_LAT NEUMANN_LON NEUMANN_CLASS NEUMANN_WIND NEUMANN_PRES MLC_LAT MLC_LON MLC_CLASS MLC_WIND MLC_PRES USA_GUST BOM_GUST BOM_GUST_PER REUNION_GUST REUNION_GUST_PER USA_SEAHGT USA_SEARAD_NE USA_SEARAD_SE USA_SEARAD_SW USA_SEARAD_NW STORM_SPEED STORM_DIR
1968280N12262 1968 101 EP MM REBECCA 1968-10-06 00:00:00 TS 12.2000 -98.1000 25 hurdat_epa main 413 392 O________OO___ hurdat_epa EP171968 12.2000 -98.1000 TD 25 -1 12.2000 -98.1000 TC 25 12.2000 -98.1000 1 9 326
1968280N12262 1968 101 EP MM REBECCA 1968-10-06 03:00:00 TS 12.5498 -98.3458 main 392 357 P________PP___ EP171968 12.5450 -98.3374 TD 25 -1 12.5450 -98.3374 TC 25 12.5690 -98.3790 1 9 325
1968280N12262 1968 101 EP MM REBECCA 1968-10-06 06:00:00 TS 12.9061 -98.6114 25 hurdat_epa main 357 331 O________OP___ hurdat_epa EP171968 12.9000 -98.6000 TD 25 -1 12.9000 -98.6000 TC 25 12.9303 -98.6568 1 9 323
1968280N12262 1968 101 EP MM REBECCA 1968-10-06 09:00:00 TS 13.2673 -98.9062 main 324 307 P________PP___ EP171968 13.2650 -98.9000 TD 25 -1 13.2650 -98.9000 TC 25 13.2764 -98.9311 1 9 320
1968280N12262 1968 101 EP MM REBECCA 1968-10-06 12:00:00 TS 13.6000 -99.2000 25 hurdat_epa main 307 282 O________OO___ hurdat_epa EP171968 13.6000 -99.2000 TD 25 -1 13.6000 -99.2000 TC 25 13.6000 -99.2000 2 8 318
1968280N12262 1968 101 EP MM REBECCA 1968-10-06 15:00:00 TS 13.8653 -99.4584 main 285 268 P________PP___ EP171968 13.8574 -99.4577 TD 35 0 13.8574 -99.4577 TC 35 13.8965 -99.4615 2 7 317
1968280N12262 1968 101 EP MM REBECCA 1968-10-06 18:00:00 TS 14.1145 -99.7031 45 hurdat_epa main 273 254 O________OP___ hurdat_epa EP171968 14.1000 -99.7000 TS 45 0 14.1000 -99.7000 TC 45 14.1724 -99.7154 2 7 318
1968280N12262 1968 101 EP MM REBECCA 1968-10-06 21:00:00 TS 14.4014 -99.9583 main 259 230 P________PP___ EP171968 14.3925 -99.9575 TS 45 0 14.3925 -99.9575 TC 45 14.4371 -99.9615 2 8 321
1968280N12262 1968 101 EP MM REBECCA 1968-10-07 00:00:00 TS 14.7000 -100.200 45 hurdat_epa main 230 204 O________OO___ hurdat_epa EP171968 14.7000 -100.200 TS 45 0 14.7000 -100.200 TC 45 14.7000 -100.200 2 7 324
1968280N12262 1968 101 EP MM REBECCA 1968-10-07 03:00:00 TS 15.0034 -100.407 main 204 183 P________PP___ EP171968 15.0074 -100.400 TS 45 0 15.0074 -100.400 TC 45 14.9871 -100.432 2 7 326
1968280N12262 1968 101 EP MM REBECCA 1968-10-07 06:00:00 TS 15.2945 -100.612 45 hurdat_epa main 183 178 O________OP___ hurdat_epa EP171968 15.3000 -100.600 TS 45 0 15.3000 -100.600 TC 45 15.2724 -100.658 2 7 322
1968280N12262 1968 101 EP MM REBECCA 1968-10-07 09:00:00 TS 15.5613 -100.856 main 173 158 P________PP___ EP171968 15.5650 -100.850 TS 45 0 15.5650 -100.850 TC 45 15.5465 -100.879 2 7 317
1968280N12262 1968 101 EP MM REBECCA 1968-10-07 12:00:00 TS 15.8000 -101.100 45 hurdat_epa main 158 140 O________OO___ hurdat_epa EP171968 15.8000 -101.100 TS 45 0 15.8000 -101.100 TC 45 15.8000 -101.100 2 6 316
1968280N12262 1968 101 EP MM REBECCA 1968-10-07 15:00:00 TS 16.0102 -101.300 main 144 127 P________PP___ EP171968 16.0074 -101.300 TS 45 0 16.0074 -101.300 TC 45 16.0213 -101.301 2 6 316
1968280N12262 1968 101 EP MM REBECCA 1968-10-07 18:00:00 TS 16.2044 -101.501 45 hurdat_epa main 130 119 O________OP___ hurdat_epa EP171968 16.2000 -101.500 TS 45 0 16.2000 -101.500 TC 45 16.2220 -101.506 2 6 314
1968280N12262 1968 101 EP MM REBECCA 1968-10-07 21:00:00 TS 16.4023 -101.729 main 119 115 P________PP___ EP171968 16.3999 -101.728 TS 45 0 16.3999 -101.728 TC 45 16.4118 -101.732 2 6 310
1968280N12262 1968 101 EP MM REBECCA 1968-10-08 00:00:00 TS 16.6000 -102.000 45 hurdat_epa main 123 113 O________OO___ hurdat_epa EP171968 16.6000 -102.000 TS 45 0 16.6000 -102.000 TC 45 16.6000 -102.000 2 7 305
1968280N12262 1968 101 EP MM REBECCA 1968-10-08 03:00:00 TS 16.8024 -102.328 main 119 105 P________PP___ EP171968 16.8000 -102.328 TS 45 0 16.8000 -102.328 TC 45 16.8123 -102.328 2 8 301
1968280N12262 1968 101 EP MM REBECCA 1968-10-08 06:00:00 TS 17.0045 -102.699 45 hurdat_epa main 109 99 O________OP___ hurdat_epa EP171968 17.0000 -102.700 TS 45 0 17.0000 -102.700 TC 45 17.0226 -102.697 2 8 299
1968280N12262 1968 101 EP MM REBECCA 1968-10-08 09:00:00 TS 17.2103 -103.093 main 102 91 P________PP___ EP171968 17.2075 -103.093 TS 45 0 17.2075 -103.093 TC 45 17.2216 -103.093 2 9 297
1968280N12262 1968 101 EP MM REBECCA 1968-10-08 12:00:00 TS 17.4000 -103.500 45 hurdat_epa main 94 89 O________OO___ hurdat_epa EP171968 17.4000 -103.500 TS 45 0 17.4000 -103.500 TC 45 17.4000 -103.500 3 8 295
1968280N12262 1968 101 EP MM REBECCA 1968-10-08 15:00:00 TS 17.5636 -103.898 main 89 89 P________PP___ EP171968 17.5649 -103.900 TS 60 0 17.5649 -103.900 TC 60 17.5585 -103.889 3 8 291
1968280N12262 1968 101 EP MM REBECCA 1968-10-08 18:00:00 TS 17.6989 -104.297 75 hurdat_epa main 108 108 O________OP___ hurdat_epa EP171968 17.7000 -104.300 HU 75 1 17.7000 -104.300 TC 75 17.6947 -104.285 3 8 288
1968280N12262 1968 101 EP MM REBECCA 1968-10-08 21:00:00 TS 17.8136 -104.698 main 138 138 P________PP___ EP171968 17.8149 -104.700 HU 75 1 17.8149 -104.700 TC 75 17.8085 -104.689 3 8 285
1968280N12262 1968 101 EP MM REBECCA 1968-10-09 00:00:00 TS 17.9000 -105.100 75 hurdat_epa main 148 148 O________OO___ hurdat_epa EP171968 17.9000 -105.100 HU 75 1 17.9000 -105.100 TC 75 17.9000 -105.100 2 8 281
1968280N12262 1968 101 EP MM REBECCA 1968-10-09 03:00:00 TS 17.9544 -105.494 main 153 153 P________PP___ EP171968 17.9574 -105.493 HU 75 1 17.9574 -105.493 TC 75 17.9426 -105.498 2 8 277
1968280N12262 1968 101 EP MM REBECCA 1968-10-09 06:00:00 TS 17.9938 -105.901 75 hurdat_epa main 177 177 O________OP___ hurdat_epa EP171968 18.0000 -105.900 HU 75 1 18.0000 -105.900 TC 75 17.9692 -105.906 2 8 275
1968280N12262 1968 101 EP MM REBECCA 1968-10-09 09:00:00 TS 18.0241 -106.329 main 207 207 P________PP___ EP171968 18.0273 -106.328 HU 60 0 18.0273 -106.328 TC 60 18.0112 -106.336 2 9 277
1968280N12262 1968 101 EP MM REBECCA 1968-10-09 12:00:00 TS 18.1000 -106.800 45 hurdat_epa main 238 238 O________OO___ hurdat_epa EP171968 18.1000 -106.800 TS 45 0 18.1000 -106.800 TC 45 18.1000 -106.800 2 10 284
1968280N12262 1968 101 EP MM REBECCA 1968-10-09 15:00:00 TS 18.2693 -107.330 main 262 262 P________PP___ EP171968 18.2700 -107.335 TS 45 0 18.2700 -107.335 TC 45 18.2665 -107.310 2 11 291
1968280N12262 1968 101 EP MM REBECCA 1968-10-09 18:00:00 TS 18.4965 -107.891 45 hurdat_epa main 302 302 O________OP___ hurdat_epa EP171968 18.5000 -107.900 TS 45 0 18.5000 -107.900 TC 45 18.4824 -107.855 2 12 294
1968280N12262 1968 101 EP MM REBECCA 1968-10-09 21:00:00 TS 18.7402 -108.439 main 337 337 P________PP___ EP171968 18.7423 -108.443 TS 45 0 18.7423 -108.443 TC 45 18.7320 -108.423 2 12 296
1968280N12262 1968 101 EP MM REBECCA 1968-10-10 00:00:00 TS 19.0000 -109.000 45 hurdat_epa main 379 379 O________OO___ hurdat_epa EP171968 19.0000 -109.000 TS 45 0 19.0000 -109.000 TC 45 19.0000 -109.000 2 12 294
1968280N12262 1968 101 EP MM REBECCA 1968-10-10 03:00:00 TS 19.2397 -109.604 main 414 380 P________PP___ EP171968 19.2424 -109.600 TS 45 0 19.2424 -109.600 TC 45 19.2286 -109.617 2 12 293
1968280N12262 1968 101 EP MM REBECCA 1968-10-10 06:00:00 TS 19.4952 -110.207 45 hurdat_epa main 380 356 O________OP___ hurdat_epa EP171968 19.5000 -110.200 TS 45 0 19.5000 -110.200 TC 45 19.4758 -110.233 2 12 296
1968280N12262 1968 101 EP MM REBECCA 1968-10-10 09:00:00 TS 19.7740 -110.792 main 356 336 P________PP___ EP171968 19.7775 -110.788 TS 45 0 19.7775 -110.788 TC 45 19.7600 -110.807 2 12 300
1968280N12262 1968 101 EP MM REBECCA 1968-10-10 12:00:00 TS 20.1000 -111.300 45 hurdat_epa main 340 324 O________OO___ hurdat_epa EP171968 20.1000 -111.300 TS 45 0 20.1000 -111.300 TC 45 20.1000 -111.300 6 11 309
1968280N12262 1968 101 EP MM REBECCA 1968-10-10 15:00:00 TS 20.4716 -111.699 main 320 304 P________PP___ EP171968 20.4623 -111.703 TS 35 0 20.4623 -111.703 TC 35 20.5088 -111.682 6 10 321
1968280N12262 1968 101 EP MM REBECCA 1968-10-10 18:00:00 TS 20.9148 -111.994 25 hurdat_epa main 304 280 O________OP___ hurdat_epa EP171968 20.9000 -112.000 TD 25 -1 20.9000 -112.000 TC 25 20.9742 -111.972 6 11 333
1968280N12262 1968 101 EP MM REBECCA 1968-10-10 21:00:00 TS 21.4356 -112.216 main 281 264 P________PP___ EP171968 21.4251 -112.220 TD 25 -1 21.4251 -112.220 TC 25 21.4777 -112.201 6 12 341
1968280N12262 1968 101 EP MM REBECCA 1968-10-11 00:00:00 TS 22.0000 -112.400 25 hurdat_epa main 264 O________OO___ hurdat_epa EP171968 22.0000 -112.400 TD 25 -1 22.0000 -112.400 TC 25 22.0000 -112.400 6 12 343

About IBTrACS Database

This database is a web-friendly format of International Best Track Archive for Climate Stewardship (IBTrACS), a global best track data archive curated by NOAA dating back to 1842.

Updated: 2021-12-06